Архив погоды в Джикимде

Метеограмма Джикимда
Пятница, 24 Мая
Время местн. Темп Ветер Видим Явления Облачность нижн/средн/верх Атм. давл. Влжн Точка росы ВНГО R Сост. почвы Tg s
Напр Скр Прв ур.ст ур.м изм
15:00 +16.6° С-В 4 - 50 км небо без изменений {ливневые осадки} преимущественно облачно 736 751 0 36% +1.5° 1 км - - - -
12:00 +16.2° С-В 1 - более 50 км - облачно с прояснениями 736 751 -1.1 40% +2.5° 1 км - - - -
09:00 +6.5° З,С-З 1 - 50 км - облачно 737 753 +0.2 76% +2.6° - 0 Влажная (без луж) - -
06:00 +0.4° штиль 0 - более 50 км - облачно 737 753 +0.2 96% -0.2° более 2.5 км - - - -
03:00 +1.5° З 1 - 50 км - переменная облачность 736 753 +0.8 89% -0.1° более 2.5 км - - - -
00:00 +5.3° З 1 - 50 км - ясно 736 752 +1.1 83% +2.6° более 2.5 км - - - -
Четверг, 23 Мая
Время местн. Темп Ветер Видим Явления Облачность нижн/средн/верх Атм. давл. Влжн Точка росы ВНГО R Сост. почвы Tg s
Напр Скр Прв ур.ст ур.м изм
21:00 +13.2° З 2 12 более 50 км - переменная облачность 735 750 +0.5 57% +4.8° 1.5 км 0.4 - - -
18:00 +15.5° З 6 10 50 км - облачно с прояснениями 734 749 +1.4 54% +6.2° 1 км - - - -
15:00 +14.3° З 7 14 более 50 км небо без изменений {ливневые осадки} преимущественно облачно 733 748 +0.8 50% +4.1° 1 км - - - -
12:00 +16.5° С 4 - 50 км - преимущественно облачно 732 747 +0.1 39% +2.6° 1 км - - - -
09:00 +14.2° С,С-В 1 - более 50 км - переменная облачность 732 747 0 64% +7.4° 1.5 км 0 - - -
06:00 +7.1° З 1 - более 50 км - облачно 732 747 +0.7 90% +5.5° 1.5 км - - - -
03:00 +10.8° Ю-З 1 - 50 км - облачно с прояснениями 731 747 +0.4 87% +8.8° 1.5 км - - - -
00:00 +13° З 2 11 более 50 км - облачно 731 746 +0.5 73% +8.2° 1.5 км - - - -
Среда, 22 Мая
Время местн. Темп Ветер Видим Явления Облачность нижн/средн/верх Атм. давл. Влжн Точка росы ВНГО R Сост. почвы Tg s
Напр Скр Прв ур.ст ур.м изм
21:00 +16.4° Ю-З 7 11 50 км - облачно 730 746 +0.5 48% +5.4° 1.5 км 0 - - -
18:00 +21.4° Ю,Ю-З 2 - более 50 км - облачно 730 745 -1.5 25% +0.8° более 2.5 км - - - -
15:00 +20.4° С-З 1 - более 50 км - преимущественно облачно 731 746 -2.1 27% +1° более 2.5 км - - - -
12:00 +17° С-З 1 - 50 км - переменная облачность 733 749 -2.6 33% +0.5° более 2.5 км - - - -
09:00 +6° С-З 1 - 50 км - незначительная облачность 736 752 -1.1 63% -0.6° более 2.5 км 0 Влажная (без луж) - -
06:00 -1.6° З 1 - 50 км - переменная облачность 737 753 -0.5 90% -3° более 2.5 км - - - -
03:00 -1.3° С-В 1 - более 50 км - ясно 738 754 0 86% -3.3° более 2.5 км - - - -
00:00 +3.9° В,С-В 1 - более 50 км - ясно 738 754 +0.2 75% -0.1° более 2.5 км - - - -
Вторник, 21 Мая
Время местн. Темп Ветер Видим Явления Облачность нижн/средн/верх Атм. давл. Влжн Точка росы ВНГО R Сост. почвы Tg s
Напр Скр Прв ур.ст ур.м изм
21:00 +14.9° С 1 - 50 км - ясно 737 753 -0.2 39% +1.1° более 2.5 км 0 - - -
18:00 +18.4° С-В 1 - более 50 км - ясно 738 753 -1.7 30% +0.5° более 2.5 км - - - -
15:00 +17.2° З,С-З 1 - 50 км - ясно 739 755 -1.8 32% +0.5° более 2.5 км - - - -
12:00 +16° З 1 - 50 км - ясно 741 757 -1.9 38% +1.8° более 2.5 км - - - -